createdAt,value
2023-10-29T00:00:17.606Z,225.000000
2023-10-29T00:05:15.814Z,225.000000
2023-10-29T00:10:17.678Z,247.500000
2023-10-29T00:15:17.582Z,225.000000
2023-10-29T00:21:01.098Z,247.500000
2023-10-29T00:25:15.814Z,247.500000
2023-10-29T00:30:17.677Z,247.500000
2023-10-29T00:35:17.645Z,247.500000
2023-10-29T00:41:01.076Z,247.500000
2023-10-29T00:45:17.631Z,225.000000
2023-10-29T00:50:17.650Z,225.000000
2023-10-29T00:56:01.166Z,225.000000
2023-10-29T01:00:17.613Z,225.000000
2023-10-29T01:06:01.170Z,225.000000
2023-10-29T01:10:15.838Z,225.000000
2023-10-29T01:15:15.874Z,225.000000
2023-10-29T01:20:17.654Z,247.500000
2023-10-29T01:25:17.633Z,270.000000
2023-10-29T01:30:23.877Z,225.000000
2023-10-29T01:36:01.119Z,270.000000
2023-10-29T01:40:15.856Z,225.000000
2023-10-29T01:45:15.892Z,225.000000
2023-10-29T01:50:15.873Z,247.500000
2023-10-29T01:55:23.899Z,247.500000
2023-10-29T02:01:01.210Z,270.000000
2023-10-29T02:06:01.145Z,247.500000
2023-10-29T02:10:15.890Z,225.000000
2023-10-29T02:15:15.898Z,225.000000
2023-10-29T02:20:17.685Z,225.000000
2023-10-29T02:25:17.678Z,225.000000
2023-10-29T02:30:17.677Z,225.000000
2023-10-29T02:35:17.690Z,315.000000
2023-10-29T02:40:17.694Z,292.500000
2023-10-29T02:45:23.998Z,225.000000
2023-10-29T02:51:01.206Z,292.500000
2023-10-29T02:55:15.875Z,225.000000
2023-10-29T03:00:17.692Z,315.000000
2023-10-29T03:06:01.170Z,315.000000
2023-10-29T03:11:01.200Z,315.000000
2023-10-29T03:15:15.856Z,225.000000
2023-10-29T03:20:15.792Z,247.500000
2023-10-29T03:25:17.751Z,270.000000
2023-10-29T03:31:01.194Z,270.000000
2023-10-29T03:35:15.898Z,270.000000
2023-10-29T03:40:15.954Z,270.000000
2023-10-29T03:45:17.722Z,270.000000
2023-10-29T03:50:17.751Z,270.000000
2023-10-29T03:55:17.734Z,270.000000
2023-10-29T04:01:02.416Z,270.000000
2023-10-29T04:05:18.987Z,292.500000
2023-10-29T04:10:18.988Z,292.500000
2023-10-29T04:15:25.214Z,315.000000
2023-10-29T04:21:02.510Z,315.000000
2023-10-29T04:25:17.154Z,292.500000
2023-10-29T04:31:02.479Z,315.000000
2023-10-29T04:35:19.011Z,315.000000
2023-10-29T04:41:02.464Z,292.500000
2023-10-29T04:45:17.215Z,315.000000
2023-10-29T04:50:19.021Z,315.000000
2023-10-29T04:55:18.992Z,292.500000
2023-10-29T05:01:02.458Z,315.000000
2023-10-29T05:05:18.951Z,315.000000
2023-10-29T05:10:17.233Z,292.500000
2023-10-29T05:15:19.040Z,315.000000
2023-10-29T05:21:03.149Z,292.500000
2023-10-29T05:25:18.995Z,292.500000
2023-10-29T05:30:17.217Z,292.500000
2023-10-29T05:35:18.993Z,315.000000
2023-10-29T05:40:19.054Z,315.000000
2023-10-29T05:46:02.537Z,315.000000
2023-10-29T05:50:18.996Z,315.000000
2023-10-29T05:55:17.237Z,315.000000
2023-10-29T06:00:56.332Z,315.000000
2023-10-29T06:06:02.519Z,292.500000
2023-10-29T06:11:02.622Z,337.500000
2023-10-29T06:16:02.452Z,315.000000
2023-10-29T06:20:19.009Z,337.500000
2023-10-29T06:25:17.233Z,337.500000
2023-10-29T06:30:19.170Z,337.500000
2023-10-29T06:35:56.342Z,337.500000
2023-10-29T06:40:25.287Z,337.500000
2023-10-29T06:46:02.482Z,337.500000
2023-10-29T06:50:19.022Z,292.500000
2023-10-29T06:55:19.382Z,315.000000
2023-10-29T07:00:19.026Z,337.500000
2023-10-29T07:06:02.561Z,315.000000
2023-10-29T07:11:02.557Z,337.500000
2023-10-29T07:15:17.267Z,292.500000
2023-10-29T07:20:19.089Z,315.000000
2023-10-29T07:26:02.523Z,315.000000
2023-10-29T07:30:19.084Z,315.000000
2023-10-29T07:35:17.230Z,337.500000
2023-10-29T07:40:19.066Z,315.000000
2023-10-29T07:46:02.592Z,315.000000
2023-10-29T07:50:25.325Z,315.000000
2023-10-29T07:56:02.518Z,315.000000
2023-10-29T08:01:02.555Z,0.000000
2023-10-29T08:05:17.240Z,315.000000
2023-10-29T08:10:17.265Z,315.000000
2023-10-29T08:15:18.537Z,337.500000
2023-10-29T08:20:19.184Z,337.500000
2023-10-29T08:25:19.089Z,315.000000
2023-10-29T08:30:19.118Z,337.500000
2023-10-29T08:35:19.091Z,337.500000
2023-10-29T08:40:25.347Z,337.500000
2023-10-29T08:46:02.673Z,337.500000
2023-10-29T08:50:19.112Z,337.500000
2023-10-29T08:55:19.087Z,337.500000
2023-10-29T09:00:19.089Z,22.500000
2023-10-29T09:05:19.101Z,337.500000
2023-10-29T09:10:19.107Z,22.500000
2023-10-29T09:15:17.328Z,22.500000
2023-10-29T09:20:27.167Z,337.500000
2023-10-29T09:25:19.110Z,337.500000
2023-10-29T09:30:25.348Z,22.500000
2023-10-29T09:36:02.614Z,315.000000
2023-10-29T09:41:02.589Z,315.000000
2023-10-29T09:45:19.078Z,315.000000
2023-10-29T09:50:17.325Z,315.000000
2023-10-29T09:55:19.129Z,337.500000
2023-10-29T10:00:19.194Z,315.000000
2023-10-29T10:06:02.623Z,315.000000
2023-10-29T10:11:02.681Z,292.500000
2023-10-29T10:16:02.646Z,315.000000
2023-10-29T10:21:02.618Z,315.000000
2023-10-29T10:25:19.244Z,315.000000
2023-10-29T10:30:18.101Z,337.500000
2023-10-29T10:35:17.371Z,315.000000
2023-10-29T10:40:19.119Z,315.000000
2023-10-29T10:46:02.654Z,315.000000
2023-10-29T10:51:02.682Z,292.500000
2023-10-29T10:55:31.410Z,292.500000
2023-10-29T11:01:03.601Z,315.000000
2023-10-29T11:05:19.409Z,337.500000
2023-10-29T11:10:19.151Z,337.500000
2023-10-29T11:15:25.382Z,22.500000
2023-10-29T11:21:02.719Z,337.500000
2023-10-29T11:25:19.117Z,315.000000
2023-10-29T11:30:17.438Z,337.500000
2023-10-29T11:35:17.374Z,22.500000
2023-10-29T11:40:19.173Z,22.500000
2023-10-29T11:45:19.177Z,337.500000
2023-10-29T11:50:19.147Z,315.000000
2023-10-29T11:55:20.577Z,315.000000
2023-10-29T12:00:19.282Z,315.000000
2023-10-29T12:05:19.147Z,315.000000
2023-10-29T12:11:02.659Z,315.000000
2023-10-29T12:16:02.651Z,22.500000
2023-10-29T12:20:19.118Z,315.000000
2023-10-29T12:25:19.246Z,337.500000
2023-10-29T12:31:02.727Z,315.000000
2023-10-29T12:35:19.158Z,292.500000
2023-10-29T12:40:17.182Z,292.500000
2023-10-29T12:50:19.219Z,315.000000
2023-10-29T12:55:21.733Z,315.000000
2023-10-29T13:00:19.220Z,315.000000
2023-10-29T13:06:02.725Z,22.500000
2023-10-29T13:10:19.171Z,22.500000
2023-10-29T13:15:19.210Z,22.500000
2023-10-29T13:20:25.490Z,337.500000
2023-10-29T13:26:02.671Z,337.500000
2023-10-29T13:30:17.466Z,337.500000
2023-10-29T13:35:19.229Z,337.500000
2023-10-29T13:41:02.677Z,337.500000
2023-10-29T13:45:19.300Z,337.500000
2023-10-29T13:50:19.241Z,337.500000
2023-10-29T13:56:02.670Z,22.500000
2023-10-29T14:01:02.723Z,337.500000
2023-10-29T14:05:19.245Z,22.500000
2023-10-29T14:10:19.335Z,337.500000
2023-10-29T14:15:25.496Z,337.500000
2023-10-29T14:20:19.277Z,337.500000
2023-10-29T14:25:17.453Z,315.000000
2023-10-29T14:30:19.467Z,315.000000
2023-10-29T14:35:19.197Z,315.000000
2023-10-29T14:41:00.679Z,315.000000
2023-10-29T14:45:17.500Z,315.000000
2023-10-29T14:50:17.237Z,315.000000
2023-10-29T14:56:00.718Z,315.000000
2023-10-29T15:00:15.444Z,315.000000
2023-10-29T15:05:17.248Z,292.500000
2023-10-29T15:10:17.272Z,315.000000
2023-10-29T15:15:26.791Z,315.000000
2023-10-29T15:20:17.288Z,292.500000
2023-10-29T15:25:17.223Z,315.000000
2023-10-29T15:30:17.252Z,337.500000
2023-10-29T15:36:00.700Z,337.500000
2023-10-29T15:40:15.436Z,315.000000
2023-10-29T15:45:15.276Z,315.000000
2023-10-29T15:50:17.231Z,315.000000
2023-10-29T15:56:00.682Z,292.500000
2023-10-29T16:00:17.258Z,315.000000
2023-10-29T16:06:00.739Z,22.500000
2023-10-29T16:10:15.436Z,315.000000
2023-10-29T16:15:17.264Z,315.000000
2023-10-29T16:21:00.791Z,45.000000
2023-10-29T16:25:17.237Z,315.000000
2023-10-29T16:30:17.386Z,315.000000
2023-10-29T16:35:17.244Z,337.500000
2023-10-29T16:41:00.752Z,337.500000
2023-10-29T16:45:17.278Z,315.000000
2023-10-29T16:50:17.308Z,315.000000
2023-10-29T16:56:00.791Z,337.500000
2023-10-29T17:00:15.550Z,45.000000
2023-10-29T17:05:17.254Z,45.000000
2023-10-29T17:10:15.507Z,45.000000
2023-10-29T17:15:54.582Z,112.500000
2023-10-29T17:20:17.328Z,45.000000
2023-10-29T17:25:17.315Z,45.000000
2023-10-29T17:30:17.327Z,22.500000
2023-10-29T17:35:15.508Z,22.500000
2023-10-29T17:40:23.526Z,45.000000
2023-10-29T17:46:00.768Z,45.000000
2023-10-29T17:50:17.267Z,45.000000
2023-10-29T17:55:17.305Z,22.500000
2023-10-29T18:00:17.412Z,22.500000
2023-10-29T18:06:00.777Z,45.000000
2023-10-29T18:11:00.760Z,45.000000
2023-10-29T18:15:17.313Z,45.000000
2023-10-29T18:20:15.498Z,67.500000
2023-10-29T18:25:15.482Z,45.000000
2023-10-29T18:31:00.803Z,45.000000
2023-10-29T18:36:00.817Z,45.000000
2023-10-29T18:40:15.498Z,45.000000
2023-10-29T18:45:17.349Z,22.500000
2023-10-29T18:50:17.322Z,45.000000
2023-10-29T18:55:17.340Z,22.500000
2023-10-29T19:00:17.409Z,22.500000
2023-10-29T19:06:00.858Z,22.500000
2023-10-29T19:11:00.803Z,22.500000
2023-10-29T19:15:17.343Z,22.500000
2023-10-29T19:20:17.332Z,45.000000
2023-10-29T19:25:15.626Z,45.000000
2023-10-29T19:31:21.689Z,45.000000
2023-10-29T19:35:17.346Z,22.500000
2023-10-29T19:40:15.599Z,45.000000
2023-10-29T19:45:15.631Z,67.500000
2023-10-29T19:51:00.979Z,67.500000
2023-10-29T19:55:23.585Z,337.500000
2023-10-29T20:00:17.442Z,22.500000
2023-10-29T20:05:17.362Z,22.500000
2023-10-29T20:10:23.634Z,45.000000
2023-10-29T20:15:17.349Z,45.000000
2023-10-29T20:21:00.842Z,45.000000
2023-10-29T20:26:00.822Z,45.000000
2023-10-29T20:30:15.621Z,45.000000
2023-10-29T20:35:17.392Z,45.000000
2023-10-29T20:40:15.561Z,45.000000
2023-10-29T20:46:00.916Z,45.000000
2023-10-29T20:50:17.388Z,45.000000
2023-10-29T20:56:00.823Z,22.500000
2023-10-29T21:00:23.688Z,22.500000
2023-10-29T21:05:17.370Z,22.500000
2023-10-29T21:11:00.835Z,22.500000
2023-10-29T21:15:17.410Z,22.500000
2023-10-29T21:21:00.864Z,45.000000
2023-10-29T21:25:17.381Z,22.500000
2023-10-29T21:31:00.912Z,45.000000
2023-10-29T21:35:23.623Z,45.000000
2023-10-29T21:40:15.661Z,45.000000
2023-10-29T21:45:17.447Z,45.000000
2023-10-29T21:51:00.952Z,22.500000
2023-10-29T21:56:00.935Z,45.000000
2023-10-29T22:01:00.886Z,22.500000
2023-10-29T22:05:17.396Z,45.000000
2023-10-29T22:10:17.433Z,45.000000
2023-10-29T22:15:17.480Z,45.000000
2023-10-29T22:20:17.486Z,67.500000
2023-10-29T22:26:00.882Z,45.000000
2023-10-29T22:30:15.633Z,22.500000
2023-10-29T22:35:17.405Z,45.000000
2023-10-29T22:40:17.433Z,45.000000
2023-10-29T22:46:00.981Z,337.500000
2023-10-29T22:51:01.001Z,337.500000
2023-10-29T22:56:00.902Z,337.500000
2023-10-29T23:00:17.486Z,337.500000
2023-10-29T23:05:17.482Z,22.500000
2023-10-29T23:11:00.877Z,22.500000
2023-10-29T23:16:00.860Z,22.500000
2023-10-29T23:20:17.389Z,22.500000
2023-10-29T23:25:17.469Z,45.000000
2023-10-29T23:31:01.010Z,45.000000
2023-10-29T23:35:15.673Z,337.500000
2023-10-29T23:40:15.668Z,337.500000
2023-10-29T23:45:17.463Z,337.500000
2023-10-29T23:50:17.448Z,22.500000
2023-10-29T23:56:00.915Z,45.000000
